sensor_id;sensor_type;location;lat;lon;timestamp;temperature;humidity
20885;DHT22;10602;48.000;9.654;2022-10-31T00:01:21;8.30;99.90
20885;DHT22;10602;48.000;9.654;2022-10-31T00:03:49;8.30;99.90
20885;DHT22;10602;48.000;9.654;2022-10-31T00:06:16;8.30;99.90
20885;DHT22;10602;48.000;9.654;2022-10-31T00:08:46;8.30;99.90
20885;DHT22;10602;48.000;9.654;2022-10-31T00:11:14;8.20;99.90
20885;DHT22;10602;48.000;9.654;2022-10-31T00:13:41;8.20;99.90
20885;DHT22;10602;48.000;9.654;2022-10-31T00:16:16;8.20;99.90
20885;DHT22;10602;48.000;9.654;2022-10-31T00:18:47;8.20;99.90
20885;DHT22;10602;48.000;9.654;2022-10-31T00:21:14;8.20;99.90
20885;DHT22;10602;48.000;9.654;2022-10-31T00:23:45;8.20;99.90
20885;DHT22;10602;48.000;9.654;2022-10-31T00:26:12;8.20;99.90
20885;DHT22;10602;48.000;9.654;2022-10-31T00:28:40;8.20;99.90
20885;DHT22;10602;48.000;9.654;2022-10-31T00:31:10;8.30;99.90
20885;DHT22;10602;48.000;9.654;2022-10-31T00:33:39;8.20;99.90
20885;DHT22;10602;48.000;9.654;2022-10-31T00:36:10;8.30;99.90
20885;DHT22;10602;48.000;9.654;2022-10-31T00:38:37;8.30;99.90
20885;DHT22;10602;48.000;9.654;2022-10-31T00:41:04;8.30;99.90
20885;DHT22;10602;48.000;9.654;2022-10-31T00:43:32;8.30;99.90
20885;DHT22;10602;48.000;9.654;2022-10-31T00:46:01;8.30;99.90
20885;DHT22;10602;48.000;9.654;2022-10-31T00:48:29;8.20;99.90
20885;DHT22;10602;48.000;9.654;2022-10-31T00:50:57;8.10;99.90
20885;DHT22;10602;48.000;9.654;2022-10-31T00:53:25;8.10;99.90
20885;DHT22;10602;48.000;9.654;2022-10-31T00:55:53;8.10;99.90
20885;DHT22;10602;48.000;9.654;2022-10-31T00:58:20;8.00;99.90
20885;DHT22;10602;48.000;9.654;2022-10-31T01:00:51;8.00;99.90
20885;DHT22;10602;48.000;9.654;2022-10-31T01:03:21;8.10;99.90
20885;DHT22;10602;48.000;9.654;2022-10-31T01:06:06;8.10;99.90
20885;DHT22;10602;48.000;9.654;2022-10-31T01:08:36;8.10;99.90
20885;DHT22;10602;48.000;9.654;2022-10-31T01:11:10;8.10;99.90
20885;DHT22;10602;48.000;9.654;2022-10-31T01:13:37;8.10;99.90
20885;DHT22;10602;48.000;9.654;2022-10-31T01:16:06;8.10;99.90
20885;DHT22;10602;48.000;9.654;2022-10-31T01:18:34;8.10;99.90
20885;DHT22;10602;48.000;9.654;2022-10-31T01:21:07;8.20;99.90
20885;DHT22;10602;48.000;9.654;2022-10-31T01:23:35;8.10;99.90
20885;DHT22;10602;48.000;9.654;2022-10-31T01:26:10;8.20;99.90
20885;DHT22;10602;48.000;9.654;2022-10-31T01:28:39;8.10;99.90
20885;DHT22;10602;48.000;9.654;2022-10-31T01:31:09;8.10;99.90
20885;DHT22;10602;48.000;9.654;2022-10-31T01:33:38;8.10;99.90
20885;DHT22;10602;48.000;9.654;2022-10-31T01:36:20;8.00;99.90
20885;DHT22;10602;48.000;9.654;2022-10-31T01:38:49;8.00;99.90
20885;DHT22;10602;48.000;9.654;2022-10-31T01:41:20;7.90;99.90
20885;DHT22;10602;48.000;9.654;2022-10-31T01:43:52;7.90;99.90
20885;DHT22;10602;48.000;9.654;2022-10-31T01:46:25;7.80;99.90
20885;DHT22;10602;48.000;9.654;2022-10-31T01:48:54;7.80;99.90
20885;DHT22;10602;48.000;9.654;2022-10-31T01:51:31;7.80;99.90
20885;DHT22;10602;48.000;9.654;2022-10-31T01:53:58;7.80;99.90
20885;DHT22;10602;48.000;9.654;2022-10-31T01:56:26;7.70;99.90
20885;DHT22;10602;48.000;9.654;2022-10-31T01:58:55;7.70;99.90
20885;DHT22;10602;48.000;9.654;2022-10-31T02:01:25;7.70;99.90
20885;DHT22;10602;48.000;9.654;2022-10-31T02:03:53;7.70;99.90
20885;DHT22;10602;48.000;9.654;2022-10-31T02:06:47;7.70;99.90
20885;DHT22;10602;48.000;9.654;2022-10-31T02:08:54;7.70;99.90
20885;DHT22;10602;48.000;9.654;2022-10-31T02:11:23;7.70;99.90
20885;DHT22;10602;48.000;9.654;2022-10-31T02:13:52;7.70;99.90
20885;DHT22;10602;48.000;9.654;2022-10-31T02:16:20;7.60;99.90
20885;DHT22;10602;48.000;9.654;2022-10-31T02:18:47;7.60;99.90
20885;DHT22;10602;48.000;9.654;2022-10-31T02:21:23;7.60;99.90
20885;DHT22;10602;48.000;9.654;2022-10-31T02:24:09;7.50;99.90
20885;DHT22;10602;48.000;9.654;2022-10-31T02:26:57;7.50;99.90
20885;DHT22;10602;48.000;9.654;2022-10-31T02:32:20;7.50;99.90
20885;DHT22;10602;48.000;9.654;2022-10-31T02:43:26;7.40;99.90
20885;DHT22;10602;48.000;9.654;2022-10-31T02:45:26;7.50;99.90
20885;DHT22;10602;48.000;9.654;2022-10-31T02:47:49;7.50;99.90
20885;DHT22;10602;48.000;9.654;2022-10-31T02:50:28;7.40;99.90
20885;DHT22;10602;48.000;9.654;2022-10-31T02:52:52;7.40;99.90
20885;DHT22;10602;48.000;9.654;2022-10-31T02:58:07;7.40;99.90
20885;DHT22;10602;48.000;9.654;2022-10-31T03:06:41;7.30;99.90
20885;DHT22;10602;48.000;9.654;2022-10-31T03:11:20;7.20;99.90
20885;DHT22;10602;48.000;9.654;2022-10-31T03:14:12;7.20;99.90
20885;DHT22;10602;48.000;9.654;2022-10-31T03:16:53;7.20;99.90
20885;DHT22;10602;48.000;9.654;2022-10-31T03:19:26;7.10;99.90
20885;DHT22;10602;48.000;9.654;2022-10-31T03:22:04;7.10;99.90
20885;DHT22;10602;48.000;9.654;2022-10-31T03:24:30;7.00;99.90
20885;DHT22;10602;48.000;9.654;2022-10-31T03:26:59;6.90;99.90
20885;DHT22;10602;48.000;9.654;2022-10-31T03:29:30;6.80;99.90
20885;DHT22;10602;48.000;9.654;2022-10-31T03:34:29;6.70;99.90
20885;DHT22;10602;48.000;9.654;2022-10-31T03:36:59;6.80;99.90
20885;DHT22;10602;48.000;9.654;2022-10-31T03:39:28;6.80;99.90
20885;DHT22;10602;48.000;9.654;2022-10-31T03:42:05;6.80;99.90
20885;DHT22;10602;48.000;9.654;2022-10-31T03:44:34;6.80;99.90
20885;DHT22;10602;48.000;9.654;2022-10-31T03:47:05;6.80;99.90
20885;DHT22;10602;48.000;9.654;2022-10-31T03:49:33;6.80;99.90
20885;DHT22;10602;48.000;9.654;2022-10-31T04:00:13;6.80;99.90
20885;DHT22;10602;48.000;9.654;2022-10-31T04:03:44;6.80;99.90
20885;DHT22;10602;48.000;9.654;2022-10-31T04:05:21;6.80;99.90
20885;DHT22;10602;48.000;9.654;2022-10-31T04:07:54;6.80;99.90
20885;DHT22;10602;48.000;9.654;2022-10-31T04:10:24;6.80;99.90
20885;DHT22;10602;48.000;9.654;2022-10-31T04:12:57;6.80;99.90
20885;DHT22;10602;48.000;9.654;2022-10-31T04:15:26;6.70;99.90
20885;DHT22;10602;48.000;9.654;2022-10-31T04:17:56;6.70;99.90
20885;DHT22;10602;48.000;9.654;2022-10-31T04:31:47;6.60;99.90
20885;DHT22;10602;48.000;9.654;2022-10-31T04:34:16;6.60;99.90
20885;DHT22;10602;48.000;9.654;2022-10-31T04:36:44;6.60;99.90
20885;DHT22;10602;48.000;9.654;2022-10-31T04:39:12;6.60;99.90
20885;DHT22;10602;48.000;9.654;2022-10-31T04:41:39;6.60;99.90
20885;DHT22;10602;48.000;9.654;2022-10-31T04:44:09;6.60;99.90
20885;DHT22;10602;48.000;9.654;2022-10-31T04:46:36;6.60;99.90
20885;DHT22;10602;48.000;9.654;2022-10-31T04:49:04;6.60;99.90
20885;DHT22;10602;48.000;9.654;2022-10-31T04:51:32;6.60;99.90
20885;DHT22;10602;48.000;9.654;2022-10-31T04:54:00;6.60;99.90
20885;DHT22;10602;48.000;9.654;2022-10-31T04:56:27;6.60;99.90
20885;DHT22;10602;48.000;9.654;2022-10-31T04:58:55;6.60;99.90
20885;DHT22;10602;48.000;9.654;2022-10-31T05:01:23;6.60;99.90
20885;DHT22;10602;48.000;9.654;2022-10-31T05:03:51;6.60;99.90
20885;DHT22;10602;48.000;9.654;2022-10-31T05:06:19;6.60;99.90
20885;DHT22;10602;48.000;9.654;2022-10-31T05:08:46;6.60;99.90
20885;DHT22;10602;48.000;9.654;2022-10-31T05:11:14;6.60;99.90
20885;DHT22;10602;48.000;9.654;2022-10-31T05:13:42;6.60;99.90
20885;DHT22;10602;48.000;9.654;2022-10-31T05:16:09;6.60;99.90
20885;DHT22;10602;48.000;9.654;2022-10-31T05:27:04;6.60;99.90
20885;DHT22;10602;48.000;9.654;2022-10-31T05:47:09;6.40;99.90
20885;DHT22;10602;48.000;9.654;2022-10-31T05:49:36;6.30;99.90
20885;DHT22;10602;48.000;9.654;2022-10-31T05:52:04;6.30;99.90
20885;DHT22;10602;48.000;9.654;2022-10-31T05:54:31;6.30;99.90
20885;DHT22;10602;48.000;9.654;2022-10-31T05:56:59;6.30;99.90
20885;DHT22;10602;48.000;9.654;2022-10-31T05:59:26;6.30;99.90
20885;DHT22;10602;48.000;9.654;2022-10-31T06:01:54;6.30;99.90
20885;DHT22;10602;48.000;9.654;2022-10-31T06:04:22;6.30;99.90
20885;DHT22;10602;48.000;9.654;2022-10-31T06:06:49;6.40;99.90
20885;DHT22;10602;48.000;9.654;2022-10-31T06:09:17;6.40;99.90
20885;DHT22;10602;48.000;9.654;2022-10-31T06:11:44;6.50;99.90
20885;DHT22;10602;48.000;9.654;2022-10-31T06:14:12;6.50;99.90
20885;DHT22;10602;48.000;9.654;2022-10-31T06:16:39;6.60;99.90
20885;DHT22;10602;48.000;9.654;2022-10-31T06:19:07;6.70;99.90
20885;DHT22;10602;48.000;9.654;2022-10-31T06:21:34;6.70;99.90
20885;DHT22;10602;48.000;9.654;2022-10-31T06:24:02;6.80;99.90
20885;DHT22;10602;48.000;9.654;2022-10-31T06:26:29;6.90;99.90
20885;DHT22;10602;48.000;9.654;2022-10-31T06:28:57;7.00;99.90
20885;DHT22;10602;48.000;9.654;2022-10-31T06:31:24;7.10;99.90
20885;DHT22;10602;48.000;9.654;2022-10-31T06:33:52;7.10;99.90
20885;DHT22;10602;48.000;9.654;2022-10-31T06:36:19;7.10;99.90
20885;DHT22;10602;48.000;9.654;2022-10-31T06:38:47;7.20;99.90
20885;DHT22;10602;48.000;9.654;2022-10-31T06:41:14;7.30;99.90
20885;DHT22;10602;48.000;9.654;2022-10-31T06:43:42;7.40;99.90
20885;DHT22;10602;48.000;9.654;2022-10-31T06:46:09;7.50;99.90
20885;DHT22;10602;48.000;9.654;2022-10-31T06:48:40;7.50;99.90
20885;DHT22;10602;48.000;9.654;2022-10-31T06:51:08;7.50;99.90
20885;DHT22;10602;48.000;9.654;2022-10-31T06:53:36;7.60;99.90
20885;DHT22;10602;48.000;9.654;2022-10-31T06:56:03;7.70;99.90
20885;DHT22;10602;48.000;9.654;2022-10-31T06:58:31;7.80;99.90
20885;DHT22;10602;48.000;9.654;2022-10-31T07:01:01;8.10;99.90
20885;DHT22;10602;48.000;9.654;2022-10-31T07:03:29;8.20;99.90
20885;DHT22;10602;48.000;9.654;2022-10-31T07:05:56;8.40;99.90
20885;DHT22;10602;48.000;9.654;2022-10-31T07:08:24;8.50;99.90
20885;DHT22;10602;48.000;9.654;2022-10-31T07:10:54;8.70;99.90
20885;DHT22;10602;48.000;9.654;2022-10-31T07:13:22;9.00;99.90
20885;DHT22;10602;48.000;9.654;2022-10-31T07:15:54;9.10;99.90
20885;DHT22;10602;48.000;9.654;2022-10-31T07:18:22;9.20;99.90
20885;DHT22;10602;48.000;9.654;2022-10-31T07:20:51;9.30;99.90
20885;DHT22;10602;48.000;9.654;2022-10-31T07:23:18;9.40;99.90
20885;DHT22;10602;48.000;9.654;2022-10-31T07:25:46;9.50;99.90
20885;DHT22;10602;48.000;9.654;2022-10-31T07:28:15;9.80;99.90
20885;DHT22;10602;48.000;9.654;2022-10-31T07:30:42;10.30;99.90
20885;DHT22;10602;48.000;9.654;2022-10-31T07:33:10;11.10;99.90
20885;DHT22;10602;48.000;9.654;2022-10-31T07:35:37;12.10;99.90
20885;DHT22;10602;48.000;9.654;2022-10-31T07:38:10;13.00;99.90
20885;DHT22;10602;48.000;9.654;2022-10-31T07:40:37;13.70;99.90
20885;DHT22;10602;48.000;9.654;2022-10-31T07:43:05;13.90;99.90
20885;DHT22;10602;48.000;9.654;2022-10-31T07:45:32;13.80;99.90
20885;DHT22;10602;48.000;9.654;2022-10-31T07:48:00;13.70;99.90
20885;DHT22;10602;48.000;9.654;2022-10-31T07:50:32;13.60;99.90
20885;DHT22;10602;48.000;9.654;2022-10-31T07:53:04;13.60;99.90
20885;DHT22;10602;48.000;9.654;2022-10-31T07:55:32;13.80;99.90
20885;DHT22;10602;48.000;9.654;2022-10-31T07:58:05;14.20;99.90
20885;DHT22;10602;48.000;9.654;2022-10-31T08:00:35;14.90;99.90
20885;DHT22;10602;48.000;9.654;2022-10-31T08:03:06;15.90;99.90
20885;DHT22;10602;48.000;9.654;2022-10-31T08:05:34;16.60;99.90
20885;DHT22;10602;48.000;9.654;2022-10-31T08:08:02;17.00;99.90
20885;DHT22;10602;48.000;9.654;2022-10-31T08:10:31;17.10;99.90
20885;DHT22;10602;48.000;9.654;2022-10-31T08:13:04;17.30;99.90
20885;DHT22;10602;48.000;9.654;2022-10-31T08:15:33;17.50;99.90
20885;DHT22;10602;48.000;9.654;2022-10-31T08:18:02;17.90;99.90
20885;DHT22;10602;48.000;9.654;2022-10-31T08:20:32;18.00;99.90
20885;DHT22;10602;48.000;9.654;2022-10-31T08:23:01;18.00;99.90
20885;DHT22;10602;48.000;9.654;2022-10-31T08:25:30;18.70;99.90
20885;DHT22;10602;48.000;9.654;2022-10-31T08:27:58;18.60;99.90
20885;DHT22;10602;48.000;9.654;2022-10-31T08:30:28;18.50;99.90
20885;DHT22;10602;48.000;9.654;2022-10-31T08:33:09;18.40;99.90
20885;DHT22;10602;48.000;9.654;2022-10-31T08:35:33;18.50;99.90
20885;DHT22;10602;48.000;9.654;2022-10-31T08:38:01;18.50;99.90
20885;DHT22;10602;48.000;9.654;2022-10-31T08:40:30;18.80;99.90
20885;DHT22;10602;48.000;9.654;2022-10-31T08:43:11;18.90;99.90
20885;DHT22;10602;48.000;9.654;2022-10-31T08:45:34;19.10;99.90
20885;DHT22;10602;48.000;9.654;2022-10-31T08:48:04;19.40;99.90
20885;DHT22;10602;48.000;9.654;2022-10-31T08:50:34;19.60;99.90
20885;DHT22;10602;48.000;9.654;2022-10-31T08:53:04;19.90;99.90
20885;DHT22;10602;48.000;9.654;2022-10-31T08:55:34;20.20;99.20
20885;DHT22;10602;48.000;9.654;2022-10-31T08:58:03;20.50;98.10
20885;DHT22;10602;48.000;9.654;2022-10-31T09:00:31;20.70;97.80
20885;DHT22;10602;48.000;9.654;2022-10-31T09:03:04;20.90;96.10
20885;DHT22;10602;48.000;9.654;2022-10-31T09:05:30;21.20;95.80
20885;DHT22;10602;48.000;9.654;2022-10-31T09:07:58;21.50;94.20
20885;DHT22;10602;48.000;9.654;2022-10-31T09:10:28;21.40;94.10
20885;DHT22;10602;48.000;9.654;2022-10-31T09:13:16;21.30;94.20
20885;DHT22;10602;48.000;9.654;2022-10-31T09:15:31;20.70;95.30
20885;DHT22;10602;48.000;9.654;2022-10-31T09:17:58;20.30;95.70
20885;DHT22;10602;48.000;9.654;2022-10-31T09:20:28;20.20;96.30
20885;DHT22;10602;48.000;9.654;2022-10-31T09:23:03;20.10;96.50
20885;DHT22;10602;48.000;9.654;2022-10-31T09:25:33;19.90;97.60
20885;DHT22;10602;48.000;9.654;2022-10-31T09:28:02;20.10;98.20
20885;DHT22;10602;48.000;9.654;2022-10-31T09:30:32;19.80;98.10
20885;DHT22;10602;48.000;9.654;2022-10-31T09:33:06;19.30;99.10
20885;DHT22;10602;48.000;9.654;2022-10-31T09:35:34;18.90;99.90
20885;DHT22;10602;48.000;9.654;2022-10-31T09:38:04;18.70;99.90
20885;DHT22;10602;48.000;9.654;2022-10-31T09:40:40;18.50;99.90
20885;DHT22;10602;48.000;9.654;2022-10-31T09:43:30;18.20;99.90
20885;DHT22;10602;48.000;9.654;2022-10-31T09:46:16;17.90;99.90
